Time;durP1;ratioP1;P1;durP2;ratioP2;P2;SDS_P1;SDS_P2;PMS_P1;PMS_P2;Temp;Humidity;BMP_temperature;BMP_pressure;BME280_temperature;BME280_humidity;BME280_pressure;Samples;Min_cycle;Max_cycle;Signal;HPM_P1;HPM_P2
2022/05/31 00:01:08;;;;;;;6.18;3.00;;;13.10;68.40;;;;;;5049095;28;20033;-73
2022/05/31 00:03:35;;;;;;;5.75;2.90;;;13.10;68.60;;;;;;5049600;28;20021;-74
2022/05/31 00:06:03;;;;;;;5.68;2.92;;;13.10;68.70;;;;;;5048381;28;20070;-73
2022/05/31 00:08:28;;;;;;;5.63;3.38;;;13.00;69.00;;;;;;5048898;28;20040;-72
2022/05/31 00:10:54;;;;;;;5.70;3.20;;;13.00;69.20;;;;;;5047867;28;20025;-73
2022/05/31 00:13:20;;;;;;;6.88;3.90;;;13.00;69.30;;;;;;5048842;28;20033;-73
2022/05/31 00:15:45;;;;;;;8.70;3.63;;;13.00;69.30;;;;;;5048605;28;20102;-72
2022/05/31 00:18:13;;;;;;;8.40;2.70;;;13.00;69.20;;;;;;5048305;28;20021;-73
2022/05/31 00:20:38;;;;;;;6.80;3.20;;;13.00;69.20;;;;;;5049116;28;20123;-72
2022/05/31 00:23:06;;;;;;;6.18;3.40;;;13.00;69.10;;;;;;5047343;28;20021;-73
2022/05/31 00:25:32;;;;;;;7.45;3.83;;;13.00;69.20;;;;;;5048241;28;20166;-73
2022/05/31 00:27:57;;;;;;;6.35;3.20;;;13.00;69.60;;;;;;5049249;28;20111;-73
2022/05/31 00:30:23;;;;;;;8.15;3.55;;;12.90;69.50;;;;;;5048506;28;20114;-73
2022/05/31 00:32:50;;;;;;;7.78;2.92;;;12.90;69.40;;;;;;5047552;28;20076;-73
2022/05/31 00:35:28;;;;;;;10.00;3.03;;;12.90;69.50;;;;;;5048183;28;20022;-73
2022/05/31 00:37:56;;;;;;;8.20;3.65;;;12.90;69.70;;;;;;5049008;28;20074;-73
2022/05/31 00:40:24;;;;;;;5.47;3.22;;;12.80;69.50;;;;;;5049782;28;20052;-71
2022/05/31 00:43:02;;;;;;;5.38;3.45;;;12.90;69.40;;;;;;5049112;28;20025;-72
2022/05/31 00:45:32;;;;;;;6.47;3.42;;;12.80;69.50;;;;;;5049079;28;20025;-73
2022/05/31 00:47:58;;;;;;;6.43;3.10;;;12.80;69.60;;;;;;5048985;28;20081;-73
2022/05/31 00:50:31;;;;;;;6.07;3.75;;;12.80;69.60;;;;;;5047503;28;20654;-73
2022/05/31 00:53:05;;;;;;;6.40;3.55;;;12.80;69.70;;;;;;5048894;28;20023;-72
2022/05/31 00:55:46;;;;;;;7.50;3.80;;;12.80;69.70;;;;;;5046608;28;20033;-73
2022/05/31 00:58:19;;;;;;;7.65;3.67;;;12.80;69.90;;;;;;5045144;28;20033;-73
2022/05/31 01:00:45;;;;;;;7.55;3.92;;;12.80;69.90;;;;;;5048540;28;20023;-72
2022/05/31 01:03:15;;;;;;;7.25;4.07;;;12.80;69.80;;;;;;5048200;28;20108;-73
2022/05/31 01:05:41;;;;;;;5.32;3.03;;;12.80;69.90;;;;;;5048099;28;20021;-73
2022/05/31 01:08:07;;;;;;;4.93;2.90;;;12.80;70.10;;;;;;5047482;28;20488;-73
2022/05/31 01:10:33;;;;;;;7.50;3.60;;;12.70;70.10;;;;;;5046976;28;20024;-73
2022/05/31 01:13:00;;;;;;;6.82;3.67;;;12.70;70.20;;;;;;5047841;28;20029;-73
2022/05/31 01:15:26;;;;;;;5.97;3.53;;;12.70;70.10;;;;;;5047760;28;20581;-74
2022/05/31 01:17:53;;;;;;;7.97;3.58;;;12.70;70.20;;;;;;5048417;28;20021;-74
2022/05/31 01:20:21;;;;;;;8.25;2.85;;;12.60;70.10;;;;;;5047089;28;20033;-74
2022/05/31 01:22:54;;;;;;;10.85;4.97;;;12.60;70.10;;;;;;5047458;28;20074;-73
2022/05/31 01:25:32;;;;;;;7.90;5.07;;;12.60;70.30;;;;;;5047316;28;20033;-73
2022/05/31 01:28:26;;;;;;;12.55;7.95;;;12.60;70.50;;;;;;5046620;28;20053;-73
2022/05/31 01:31:17;;;;;;;11.07;6.03;;;12.50;70.50;;;;;;5035869;28;20082;-73
2022/05/31 01:33:55;;;;;;;11.35;5.32;;;12.50;70.60;;;;;;5045852;28;20786;-73
2022/05/31 01:36:36;;;;;;;10.23;5.07;;;12.50;70.80;;;;;;5049286;28;20056;-73
2022/05/31 01:39:04;;;;;;;;;;;12.40;71.10;;;;;;5046941;28;20029;-73
2022/05/31 01:41:36;;;;;;;6.60;4.10;;;12.40;71.10;;;;;;5047219;28;19909;-74
2022/05/31 01:44:05;;;;;;;5.00;3.28;;;12.40;71.10;;;;;;5045029;28;20056;-73
2022/05/31 01:46:33;;;;;;;8.85;4.25;;;12.40;71.40;;;;;;5047126;28;20694;-73
2022/05/31 01:49:03;;;;;;;7.05;3.75;;;12.30;71.30;;;;;;5048347;28;20067;-73
2022/05/31 01:51:29;;;;;;;5.53;3.38;;;12.30;71.50;;;;;;5047509;28;20407;-75
2022/05/31 01:53:57;;;;;;;6.63;3.47;;;12.30;71.40;;;;;;5048024;28;20032;-74
2022/05/31 01:56:22;;;;;;;6.75;4.00;;;12.30;71.40;;;;;;5047828;28;20394;-75
2022/05/31 01:58:49;;;;;;;8.43;3.88;;;12.20;71.50;;;;;;5045953;28;20037;-73
2022/05/31 02:01:16;;;;;;;5.45;3.50;;;12.20;71.40;;;;;;5048612;28;20112;-74
2022/05/31 02:03:44;;;;;;;7.10;3.60;;;12.30;71.80;;;;;;5049764;28;20092;-73
2022/05/31 02:06:42;;;;;;;7.05;4.32;;;12.20;71.40;;;;;;5052115;28;20018;-73
2022/05/31 02:09:10;;;;;;;8.25;4.15;;;12.20;71.50;;;;;;5006768;28;20091;-73
2022/05/31 02:11:37;;;;;;;6.72;4.10;;;12.30;71.40;;;;;;5050310;28;20044;-73
2022/05/31 02:14:04;;;;;;;8.55;4.32;;;12.30;71.30;;;;;;5048947;28;20052;-73
2022/05/31 02:16:30;;;;;;;7.18;3.92;;;12.30;71.40;;;;;;5050605;28;20029;-73
2022/05/31 02:21:40;;;;;;;7.07;3.75;;;12.30;71.40;;;;;;5051348;28;20044;-74
2022/05/31 02:24:11;;;;;;;7.75;3.80;;;12.30;71.50;;;;;;5051133;28;20025;-74
2022/05/31 02:26:41;;;;;;;8.10;4.25;;;12.30;71.50;;;;;;5050644;28;20051;-73
2022/05/31 02:29:09;;;;;;;7.95;4.10;;;12.30;71.40;;;;;;5051000;28;20033;-74
2022/05/31 02:31:35;;;;;;;8.10;4.28;;;12.30;71.30;;;;;;5045973;28;20079;-74
2022/05/31 02:34:00;;;;;;;7.15;3.97;;;12.40;71.20;;;;;;5046242;28;20455;-73
2022/05/31 02:36:27;;;;;;;11.27;5.07;;;12.40;71.20;;;;;;5051567;28;20207;-73
2022/05/31 02:38:53;;;;;;;6.88;4.05;;;12.40;71.20;;;;;;5049729;28;20037;-74
2022/05/31 02:41:20;;;;;;;7.53;4.30;;;12.40;71.20;;;;;;5048827;28;20028;-74
2022/05/31 02:43:45;;;;;;;7.10;4.07;;;12.40;71.10;;;;;;5049745;28;20017;-74
2022/05/31 02:46:11;;;;;;;10.10;4.47;;;12.40;71.00;;;;;;5052294;28;20383;-72
2022/05/31 02:48:37;;;;;;;8.65;4.70;;;12.40;70.90;;;;;;5049079;28;20414;-73
2022/05/31 02:51:03;;;;;;;10.02;4.80;;;12.40;70.80;;;;;;5050879;28;20029;-72
2022/05/31 02:53:31;;;;;;;7.63;3.83;;;12.40;70.90;;;;;;5049088;28;20079;-73
2022/05/31 02:55:58;;;;;;;8.32;4.88;;;12.40;70.70;;;;;;5050516;28;20040;-73
2022/05/31 02:58:25;;;;;;;8.65;4.85;;;12.30;70.50;;;;;;5048218;28;20459;-73
2022/05/31 03:00:51;;;;;;;7.13;3.97;;;12.30;70.80;;;;;;5049559;28;20031;-73
2022/05/31 03:03:16;;;;;;;8.18;4.97;;;12.30;70.90;;;;;;5049805;28;20021;-73
2022/05/31 03:05:42;;;;;;;9.13;5.47;;;12.30;71.00;;;;;;5050223;28;20033;-73
2022/05/31 03:08:08;;;;;;;11.60;5.88;;;12.30;71.00;;;;;;5036878;28;20029;-73
2022/05/31 03:10:38;;;;;;;7.25;4.93;;;12.30;70.90;;;;;;5050742;28;20381;-73
2022/05/31 03:13:04;;;;;;;;;;;12.30;70.80;;;;;;5049063;28;20032;-73
2022/05/31 03:15:33;;;;;;;9.98;5.63;;;12.30;70.90;;;;;;5049230;28;19905;-72
2022/05/31 03:18:05;;;;;;;9.30;5.57;;;12.30;70.90;;;;;;5047921;28;20029;-73
2022/05/31 03:20:46;;;;;;;9.68;5.70;;;12.30;71.10;;;;;;5049902;28;20178;-73
2022/05/31 03:23:15;;;;;;;;;;;12.30;71.10;;;;;;5047386;28;20025;-73
2022/05/31 03:25:42;;;;;;;11.97;5.63;;;12.30;71.00;;;;;;5049476;28;19909;-72
2022/05/31 03:28:10;;;;;;;10.10;6.60;;;12.30;71.10;;;;;;5050456;28;20013;-74
2022/05/31 03:30:37;;;;;;;10.38;5.85;;;12.20;71.30;;;;;;5049636;28;20021;-72
2022/05/31 03:33:05;;;;;;;7.90;5.40;;;12.20;71.30;;;;;;5048089;28;20044;-73
2022/05/31 03:35:31;;;;;;;10.90;5.57;;;12.20;71.30;;;;;;5050862;28;20049;-73
2022/05/31 03:37:57;;;;;;;7.47;5.60;;;12.20;71.50;;;;;;5048795;28;20028;-72
2022/05/31 03:43:07;;;;;;;10.65;6.07;;;12.20;71.60;;;;;;5050506;28;20090;-73
2022/05/31 03:45:37;;;;;;;9.32;5.65;;;12.20;71.60;;;;;;5040507;28;20017;-74
2022/05/31 03:48:04;;;;;;;8.57;5.32;;;12.20;71.40;;;;;;5048197;28;20071;-73
2022/05/31 03:50:29;;;;;;;12.80;6.47;;;12.20;71.20;;;;;;5049255;28;20434;-74
2022/05/31 03:52:55;;;;;;;10.55;5.97;;;12.20;71.40;;;;;;5048752;28;20039;-74
2022/05/31 03:55:21;;;;;;;10.48;6.90;;;12.20;71.50;;;;;;5049845;28;20031;-73
2022/05/31 03:57:52;;;;;;;9.88;6.80;;;12.20;71.50;;;;;;5049329;28;20060;-73
2022/05/31 04:00:19;;;;;;;10.38;6.10;;;12.20;71.60;;;;;;5049274;28;20056;-72
2022/05/31 04:02:45;;;;;;;12.13;6.82;;;12.20;71.50;;;;;;5046733;28;20028;-72
2022/05/31 04:05:14;;;;;;;10.23;6.63;;;12.30;71.50;;;;;;5048733;28;20365;-73
2022/05/31 04:07:40;;;;;;;11.82;7.45;;;12.30;71.30;;;;;;5048572;28;20021;-73
2022/05/31 04:10:07;;;;;;;11.80;6.60;;;12.30;71.50;;;;;;5049418;28;20437;-73
2022/05/31 04:12:38;;;;;;;10.20;7.25;;;12.30;71.50;;;;;;5049086;28;20071;-73
2022/05/31 04:15:05;;;;;;;9.10;6.78;;;12.30;71.40;;;;;;5049569;28;20032;-73
2022/05/31 04:17:30;;;;;;;10.70;6.25;;;12.30;71.50;;;;;;5047897;28;20033;-73
2022/05/31 04:19:56;;;;;;;9.77;6.22;;;12.30;71.80;;;;;;5047640;28;20037;-73
2022/05/31 04:22:21;;;;;;;12.18;6.95;;;12.30;71.80;;;;;;5048450;28;20021;-73
2022/05/31 04:24:52;;;;;;;11.73;7.25;;;12.30;71.80;;;;;;5049016;28;20108;-74
2022/05/31 04:27:18;;;;;;;10.63;6.43;;;12.30;71.30;;;;;;5047316;28;20420;-74
2022/05/31 04:29:44;;;;;;;10.88;7.03;;;12.30;71.30;;;;;;5048231;28;20056;-72
2022/05/31 04:32:14;;;;;;;8.65;6.45;;;12.30;71.70;;;;;;5047864;28;20060;-73
2022/05/31 04:34:40;;;;;;;14.60;6.85;;;12.30;71.60;;;;;;5048743;28;20483;-73
2022/05/31 04:37:06;;;;;;;11.45;7.10;;;12.40;71.40;;;;;;5048528;28;20115;-75
2022/05/31 04:39:32;;;;;;;11.45;6.70;;;12.40;71.30;;;;;;5045327;28;20029;-73
2022/05/31 04:41:57;;;;;;;9.65;6.55;;;12.40;71.30;;;;;;5049496;28;20036;-73
2022/05/31 04:44:23;;;;;;;10.38;7.68;;;12.40;71.30;;;;;;5048083;28;20021;-73
2022/05/31 04:46:49;;;;;;;10.98;7.78;;;12.40;71.60;;;;;;5048552;28;20692;-73
2022/05/31 04:49:14;;;;;;;11.88;7.13;;;12.50;71.50;;;;;;5047697;28;20683;-72
2022/05/31 04:51:41;;;;;;;10.68;6.25;;;12.50;71.40;;;;;;5048139;28;20104;-74
2022/05/31 04:54:06;;;;;;;11.98;7.32;;;12.60;71.20;;;;;;5047833;28;20019;-74
2022/05/31 04:56:33;;;;;;;14.82;7.50;;;12.60;71.20;;;;;;5048332;28;20461;-72
2022/05/31 04:58:59;;;;;;;12.43;7.15;;;12.70;71.20;;;;;;5047300;28;20368;-72
2022/05/31 05:01:28;;;;;;;10.77;7.32;;;12.70;70.70;;;;;;5048284;28;20391;-74
2022/05/31 05:03:54;;;;;;;11.63;6.82;;;12.70;70.70;;;;;;5043505;28;20166;-74
2022/05/31 05:06:21;;;;;;;9.65;7.35;;;12.80;71.00;;;;;;5048179;28;20074;-73
2022/05/31 05:08:48;;;;;;;13.30;6.70;;;12.80;71.20;;;;;;5046718;28;20033;-73
2022/05/31 05:11:19;;;;;;;10.75;6.57;;;12.90;70.90;;;;;;5048525;28;20032;-73
2022/05/31 05:13:45;;;;;;;10.48;6.68;;;12.90;70.70;;;;;;5047693;28;20025;-72
2022/05/31 05:16:12;;;;;;;9.27;6.75;;;12.90;70.60;;;;;;5048572;28;20029;-75
2022/05/31 05:18:39;;;;;;;11.48;7.32;;;13.00;70.60;;;;;;5045212;28;20415;-73
2022/05/31 05:21:08;;;;;;;9.48;5.50;;;13.00;70.40;;;;;;5047433;28;20050;-74
2022/05/31 05:23:34;;;;;;;11.23;7.53;;;13.10;69.20;;;;;;5046173;28;20019;-73
2022/05/31 05:26:01;;;;;;;8.45;5.22;;;13.10;69.40;;;;;;5046763;28;20167;-73
2022/05/31 05:31:27;;;;;;;9.68;6.30;;;13.20;68.40;;;;;;5027327;28;20090;-73
2022/05/31 05:33:55;;;;;;;10.38;6.85;;;13.20;69.10;;;;;;5034345;28;20087;-73
2022/05/31 05:36:21;;;;;;;5.32;2.70;;;13.20;69.30;;;;;;5047652;28;20039;-73
2022/05/31 05:38:48;;;;;;;12.88;6.78;;;13.30;68.80;;;;;;5049901;28;20037;-73
2022/05/31 05:41:14;;;;;;;11.25;6.85;;;13.40;68.00;;;;;;5050121;28;20013;-72
2022/05/31 05:43:40;;;;;;;11.52;7.28;;;13.40;68.10;;;;;;5050801;28;20029;-72
2022/05/31 05:46:21;;;;;;;9.05;6.32;;;13.40;68.10;;;;;;5051913;28;20032;-73
2022/05/31 05:48:48;;;;;;;8.60;6.53;;;13.40;68.40;;;;;;5048990;28;20029;-73
2022/05/31 05:51:20;;;;;;;10.93;7.10;;;13.50;68.30;;;;;;5051319;28;20475;-73
2022/05/31 05:53:46;;;;;;;11.93;6.82;;;13.50;68.50;;;;;;5050841;28;20037;-73
2022/05/31 05:56:12;;;;;;;11.07;6.70;;;13.50;68.10;;;;;;5050938;28;20060;-73
2022/05/31 05:58:38;;;;;;;12.40;7.55;;;13.50;68.30;;;;;;5050351;28;20104;-72
2022/05/31 06:01:05;;;;;;;9.10;6.28;;;13.60;68.20;;;;;;5050918;28;20029;-73
2022/05/31 06:03:42;;;;;;;11.43;7.38;;;13.60;68.30;;;;;;5050347;28;20025;-72
2022/05/31 06:06:10;;;;;;;9.20;6.07;;;13.70;68.00;;;;;;5049782;28;20498;-74
2022/05/31 06:08:49;;;;;;;10.95;7.00;;;13.70;67.60;;;;;;5049473;28;20025;-72
2022/05/31 06:11:19;;;;;;;13.87;7.47;;;13.70;67.50;;;;;;5041772;28;20391;-73
2022/05/31 06:14:11;;;;;;;14.23;7.13;;;13.70;67.70;;;;;;5031272;28;20136;-73
2022/05/31 06:16:43;;;;;;;15.40;6.68;;;13.80;67.70;;;;;;5040983;28;20068;-73
2022/05/31 06:19:18;;;;;;;10.38;6.72;;;13.90;67.00;;;;;;5041558;28;20083;-74
2022/05/31 06:21:46;;;;;;;10.25;6.65;;;13.90;66.80;;;;;;5045381;28;20057;-72
2022/05/31 06:24:12;;;;;;;10.07;6.65;;;13.90;66.90;;;;;;5044649;28;20017;-74
2022/05/31 06:26:39;;;;;;;12.57;6.05;;;14.00;67.30;;;;;;5046815;28;20017;-73
2022/05/31 06:29:05;;;;;;;13.32;8.15;;;14.10;66.90;;;;;;5047483;28;20070;-73
2022/05/31 06:31:31;;;;;;;11.95;7.43;;;14.00;66.10;;;;;;5045739;28;20021;-73
2022/05/31 06:33:56;;;;;;;9.70;6.78;;;14.00;66.30;;;;;;5046534;28;20127;-74
2022/05/31 06:36:22;;;;;;;11.55;7.00;;;14.00;66.10;;;;;;5042780;28;20051;-74
2022/05/31 06:38:47;;;;;;;12.20;8.10;;;14.00;66.10;;;;;;5040692;28;20397;-74
2022/05/31 06:41:13;;;;;;;15.25;7.65;;;14.00;66.20;;;;;;5040331;28;20014;-73
2022/05/31 06:43:40;;;;;;;6.18;2.40;;;14.00;66.40;;;;;;5036525;28;20091;-72
2022/05/31 06:46:07;;;;;;;5.70;1.92;;;14.00;66.20;;;;;;5047536;28;20025;-72
2022/05/31 06:48:33;;;;;;;7.18;1.52;;;14.10;66.10;;;;;;5046931;28;20029;-72
2022/05/31 06:51:06;;;;;;;5.50;1.70;;;14.10;66.00;;;;;;5041084;28;20040;-72
2022/05/31 06:58:57;;;;;;;9.05;5.18;;;14.30;65.90;;;;;;5047873;28;20044;-74
2022/05/31 07:01:30;;;;;;;6.10;2.58;;;14.30;65.80;;;;;;5045272;28;20043;-73
2022/05/31 07:03:56;;;;;;;10.10;3.15;;;14.20;66.00;;;;;;5042320;28;20023;-75
2022/05/31 07:06:22;;;;;;;10.23;3.03;;;14.30;66.10;;;;;;5035955;28;20038;-73
2022/05/31 07:08:48;;;;;;;9.07;3.15;;;14.20;66.30;;;;;;5039678;28;20021;-76
2022/05/31 07:11:13;;;;;;;8.07;2.67;;;14.30;66.40;;;;;;5035985;28;20618;-75
2022/05/31 07:13:39;;;;;;;9.38;2.80;;;14.40;66.40;;;;;;5034371;28;20044;-73
2022/05/31 07:16:05;;;;;;;11.10;3.00;;;14.50;66.10;;;;;;5036046;28;20022;-73
2022/05/31 07:18:30;;;;;;;11.98;3.30;;;14.60;66.10;;;;;;5036967;28;20027;-73
2022/05/31 07:20:58;;;;;;;5.47;2.28;;;14.80;65.80;;;;;;5034872;28;20096;-74
2022/05/31 07:23:24;;;;;;;13.23;3.42;;;14.80;65.40;;;;;;5035869;28;20029;-72
2022/05/31 07:25:51;;;;;;;9.05;3.38;;;14.90;65.20;;;;;;5036640;28;20090;-72
2022/05/31 07:28:17;;;;;;;12.48;3.92;;;15.00;65.10;;;;;;5040098;28;20052;-72
2022/05/31 07:30:42;;;;;;;14.95;3.97;;;15.10;65.00;;;;;;5037666;28;20052;-72
2022/05/31 07:33:08;;;;;;;9.32;3.97;;;15.10;65.00;;;;;;5042373;28;20143;-72
2022/05/31 07:35:34;;;;;;;13.43;4.18;;;15.20;64.80;;;;;;5048691;28;20029;-73
2022/05/31 07:37:59;;;;;;;13.45;4.15;;;15.30;64.70;;;;;;5045666;28;20120;-71
2022/05/31 07:40:25;;;;;;;7.25;3.50;;;15.20;64.60;;;;;;5047558;28;20036;-72
2022/05/31 07:42:50;;;;;;;13.20;4.85;;;15.30;64.60;;;;;;5042916;28;20033;-72
2022/05/31 07:45:16;;;;;;;10.25;4.00;;;15.40;64.50;;;;;;5041343;28;20108;-72
2022/05/31 07:47:42;;;;;;;8.20;3.45;;;15.40;64.00;;;;;;5038920;28;20028;-71
2022/05/31 07:50:08;;;;;;;9.32;3.05;;;15.50;64.20;;;;;;5041805;28;20049;-71
2022/05/31 07:52:34;;;;;;;7.82;3.60;;;15.50;64.10;;;;;;5036838;28;20032;-73
2022/05/31 07:55:01;;;;;;;11.20;5.07;;;15.50;63.80;;;;;;5041715;28;20025;-72
2022/05/31 08:00:12;;;;;;;12.00;4.10;;;15.60;63.20;;;;;;5042296;28;20118;-72
2022/05/31 08:02:42;;;;;;;9.98;3.42;;;15.70;64.20;;;;;;5038446;28;20876;-73
2022/05/31 08:05:08;;;;;;;8.90;5.03;;;15.70;63.60;;;;;;5040425;28;20155;-73
2022/05/31 08:07:37;;;;;;;11.68;6.70;;;15.60;63.30;;;;;;5038265;28;20108;-72
2022/05/31 08:10:02;;;;;;;12.20;6.55;;;15.50;62.90;;;;;;5040533;28;20151;-72
2022/05/31 08:12:28;;;;;;;9.05;4.35;;;15.50;62.70;;;;;;5040227;28;20104;-71
2022/05/31 08:14:54;;;;;;;8.13;3.78;;;15.40;62.80;;;;;;5038299;28;20111;-72
2022/05/31 08:17:19;;;;;;;11.25;7.10;;;15.50;63.30;;;;;;5037448;28;20032;-71
2022/05/31 08:19:45;;;;;;;13.95;6.57;;;15.40;62.60;;;;;;5042633;28;20044;-70
2022/05/31 08:22:11;;;;;;;11.82;6.85;;;15.50;62.80;;;;;;5038735;28;20028;-71
2022/05/31 08:24:37;;;;;;;9.95;6.43;;;15.50;62.20;;;;;;5039696;28;20078;-70
2022/05/31 08:27:03;;;;;;;13.88;8.13;;;15.50;63.40;;;;;;5036740;28;20025;-72
2022/05/31 08:29:28;;;;;;;10.23;6.60;;;15.60;62.60;;;;;;5040594;28;20134;-70
2022/05/31 08:31:58;;;;;;;11.35;7.20;;;15.60;62.50;;;;;;5039045;28;20028;-72
2022/05/31 08:34:27;;;;;;;10.70;6.97;;;15.60;62.50;;;;;;5039658;28;20044;-69
2022/05/31 08:36:53;;;;;;;7.57;4.68;;;15.60;62.60;;;;;;5039734;28;20037;-71
2022/05/31 08:39:20;;;;;;;10.18;6.72;;;15.60;63.20;;;;;;5037124;28;20076;-69
2022/05/31 08:41:48;;;;;;;13.75;7.35;;;15.70;62.40;;;;;;5039802;28;20053;-68
2022/05/31 08:44:32;;;;;;;15.02;8.05;;;15.70;62.40;;;;;;5039391;28;20031;-71
2022/05/31 08:47:17;;;;;;;14.23;7.68;;;15.80;62.60;;;;;;5040658;28;20464;-70
2022/05/31 08:53:22;;;;;;;9.70;5.18;;;15.80;62.30;;;;;;5039499;28;20545;-70
2022/05/31 08:59:10;;;;;;;11.05;7.03;;;16.10;62.10;;;;;;5038623;28;20693;-70
2022/05/31 09:01:51;;;;;;;9.80;3.33;;;16.30;61.50;;;;;;5040801;28;20037;-70
2022/05/31 09:04:24;;;;;;;7.80;3.70;;;16.50;61.50;;;;;;5036436;28;20024;-70
2022/05/31 09:06:54;;;;;;;10.05;7.57;;;16.80;60.80;;;;;;5041517;28;20048;-70
2022/05/31 09:09:26;;;;;;;;;;;17.00;59.50;;;;;;5037119;28;20021;-69
2022/05/31 09:12:10;;;;;;;12.48;7.13;;;17.30;59.40;;;;;;5038144;28;19919;-70
2022/05/31 09:15:06;;;;;;;8.85;6.28;;;17.40;58.80;;;;;;5038539;28;20364;-69
2022/05/31 09:18:03;;;;;;;10.23;5.82;;;17.80;58.10;;;;;;5040542;28;20470;-70
2022/05/31 09:20:36;;;;;;;12.95;6.32;;;18.20;56.30;;;;;;5037159;28;20049;-69
2022/05/31 09:23:02;;;;;;;9.35;6.75;;;18.40;56.40;;;;;;5040742;28;20037;-70
2022/05/31 09:25:33;;;;;;;11.52;6.45;;;18.60;55.20;;;;;;5037405;28;20116;-68
2022/05/31 09:28:04;;;;;;;7.53;5.13;;;18.90;53.90;;;;;;5039322;28;20318;-71
2022/05/31 09:30:41;;;;;;;11.10;5.07;;;19.00;53.70;;;;;;5035924;28;20029;-69
2022/05/31 09:33:15;;;;;;;10.18;5.45;;;19.20;54.40;;;;;;5039656;28;20466;-69
2022/05/31 09:36:05;;;;;;;9.63;6.30;;;19.30;53.20;;;;;;5034594;28;20033;-70
2022/05/31 09:38:55;;;;;;;7.30;3.70;;;19.50;53.10;;;;;;5041158;28;20111;-71
2022/05/31 09:41:28;;;;;;;9.18;4.90;;;19.70;54.00;;;;;;5033210;28;20337;-71
2022/05/31 09:44:06;;;;;;;9.38;5.00;;;19.90;53.40;;;;;;5034646;28;20052;-72
2022/05/31 09:46:54;;;;;;;5.32;2.65;;;20.10;51.20;;;;;;5032632;28;20033;-72
2022/05/31 09:49:39;;;;;;;7.97;3.83;;;20.20;52.80;;;;;;5054622;28;20698;-70
2022/05/31 09:52:34;;;;;;;9.65;4.20;;;20.30;50.90;;;;;;5032146;28;20147;-71
2022/05/31 09:58:10;;;;;;;8.00;3.60;;;20.40;51.10;;;;;;5032371;28;20079;-70
2022/05/31 10:00:55;;;;;;;6.53;3.20;;;20.60;51.50;;;;;;5035886;28;20107;-70
2022/05/31 10:03:21;;;;;;;5.80;3.00;;;20.60;48.90;;;;;;5033820;28;20029;-70
2022/05/31 10:06:03;;;;;;;7.05;3.42;;;20.50;49.30;;;;;;5030682;28;20044;-71
2022/05/31 10:08:34;;;;;;;6.93;2.85;;;20.20;50.40;;;;;;5031432;28;20037;-71
2022/05/31 10:11:10;;;;;;;6.78;3.83;;;19.80;51.50;;;;;;5035500;28;20025;-70
2022/05/31 10:13:58;;;;;;;6.05;2.63;;;19.80;51.60;;;;;;5033628;28;20083;-72
2022/05/31 10:16:33;;;;;;;6.05;2.40;;;20.00;53.40;;;;;;5034479;28;20060;-69
2022/05/31 10:19:05;;;;;;;4.90;2.63;;;20.20;48.10;;;;;;5038935;28;20036;-71
2022/05/31 10:21:40;;;;;;;6.40;2.30;;;20.50;49.50;;;;;;5035615;28;20399;-72
2022/05/31 10:24:08;;;;;;;10.52;2.40;;;20.60;53.60;;;;;;5040212;28;20032;-69
2022/05/31 10:26:38;;;;;;;5.85;2.72;;;20.70;50.70;;;;;;5049757;28;20501;-68
2022/05/31 10:29:24;;;;;;;5.88;2.20;;;20.80;46.60;;;;;;5048715;28;20104;-69
2022/05/31 10:31:50;;;;;;;6.07;2.42;;;20.80;47.60;;;;;;5049910;28;20025;-69
2022/05/31 10:34:44;;;;;;;4.30;1.73;;;20.90;47.80;;;;;;5049029;28;20091;-68
2022/05/31 10:37:32;;;;;;;7.93;2.58;;;20.80;47.10;;;;;;5049074;28;20041;-68
2022/05/31 10:40:08;;;;;;;7.35;3.13;;;20.70;47.50;;;;;;5028913;28;20013;-69
2022/05/31 10:42:38;;;;;;;5.70;1.90;;;21.00;46.10;;;;;;5050576;28;20029;-68
2022/05/31 10:45:06;;;;;;;;;;;21.20;47.20;;;;;;5050225;28;20032;-69
2022/05/31 10:47:32;;;;;;;5.20;2.33;;;21.50;49.70;;;;;;5048139;28;20412;-69
2022/05/31 10:49:58;;;;;;;5.47;2.90;;;21.60;48.90;;;;;;5040251;28;20491;-71
2022/05/31 10:52:46;;;;;;;7.15;2.13;;;21.70;46.50;;;;;;5040490;28;20195;-70
2022/05/31 10:55:33;;;;;;;5.22;3.08;;;21.70;47.00;;;;;;5045481;28;20025;-72
2022/05/31 10:58:07;;;;;;;6.57;2.40;;;21.80;45.30;;;;;;5048985;28;20036;-71
2022/05/31 11:00:59;;;;;;;5.35;2.38;;;22.00;47.00;;;;;;5048126;28;20098;-72
2022/05/31 11:03:31;;;;;;;4.60;2.60;;;22.10;48.20;;;;;;5029750;28;20029;-71
2022/05/31 11:06:24;;;;;;;4.30;1.90;;;22.20;45.50;;;;;;5042496;28;20025;-71
2022/05/31 11:12:10;;;;;;;4.95;1.70;;;22.00;43.20;;;;;;5046369;28;20091;-72
2022/05/31 11:14:43;;;;;;;6.40;3.25;;;22.10;48.90;;;;;;5048893;28;20024;-72
2022/05/31 11:17:46;;;;;;;6.57;3.40;;;22.20;43.50;;;;;;5040257;28;20044;-71
2022/05/31 11:20:37;;;;;;;6.40;3.13;;;22.40;43.40;;;;;;5047979;28;20039;-71
2022/05/31 11:23:39;;;;;;;3.85;2.03;;;22.70;44.20;;;;;;5038405;28;20124;-70
2022/05/31 11:26:08;;;;;;;3.70;1.98;;;22.90;46.40;;;;;;5048670;28;20055;-70
2022/05/31 11:28:42;;;;;;;6.13;2.47;;;23.20;45.20;;;;;;5049640;28;20163;-72
2022/05/31 11:31:48;;;;;;;4.75;2.38;;;23.50;42.40;;;;;;5049437;28;20029;-71
2022/05/31 11:34:40;;;;;;;4.88;2.60;;;23.40;45.80;;;;;;5047159;28;20131;-71
2022/05/31 11:37:42;;;;;;;5.05;2.05;;;23.20;42.80;;;;;;5049397;28;20533;-72
2022/05/31 11:40:16;;;;;;;2.70;1.80;;;23.00;43.10;;;;;;5037898;28;20057;-71
2022/05/31 11:43:00;;;;;;;3.90;1.80;;;23.10;44.50;;;;;;5049058;28;20123;-72
2022/05/31 11:45:38;;;;;;;3.60;1.88;;;23.30;44.40;;;;;;5048367;28;20060;-71
2022/05/31 11:48:12;;;;;;;3.92;1.98;;;23.60;39.80;;;;;;5048864;28;20029;-71
2022/05/31 11:50:56;;;;;;;4.90;2.42;;;23.70;41.50;;;;;;5049676;28;20352;-71
2022/05/31 11:53:33;;;;;;;4.50;1.50;;;23.90;40.20;;;;;;5046692;28;20082;-72
2022/05/31 11:56:24;;;;;;;4.43;1.70;;;24.20;43.00;;;;;;5049927;28;20025;-71
2022/05/31 11:59:10;;;;;;;4.32;2.03;;;24.50;47.80;;;;;;5046796;28;20090;-71
2022/05/31 12:02:22;;;;;;;4.68;1.90;;;24.70;39.40;;;;;;5048757;28;20029;-72
2022/05/31 12:05:22;;;;;;;5.07;1.85;;;24.70;38.60;;;;;;5028877;28;20033;-71
2022/05/31 12:07:59;;;;;;;11.40;2.10;;;24.80;36.50;;;;;;5040386;28;20036;-72
2022/05/31 12:10:32;;;;;;;5.15;1.98;;;24.70;42.00;;;;;;5048749;28;20110;-71
2022/05/31 12:13:07;;;;;;;3.63;1.67;;;24.50;37.60;;;;;;5048748;28;20434;-72
2022/05/31 12:15:39;;;;;;;4.38;1.95;;;24.40;37.30;;;;;;5048952;28;20558;-72
2022/05/31 12:18:20;;;;;;;6.53;2.95;;;24.50;38.80;;;;;;5048533;28;20099;-73
2022/05/31 12:21:14;;;;;;;2.90;1.10;;;24.40;39.30;;;;;;5039129;28;20028;-71
2022/05/31 12:23:57;;;;;;;4.05;1.63;;;24.40;46.70;;;;;;5044037;28;20032;-72
2022/05/31 12:26:35;;;;;;;6.18;2.00;;;24.20;46.30;;;;;;5028914;28;20030;-71
2022/05/31 12:29:15;;;;;;;3.30;1.65;;;23.50;38.20;;;;;;5046241;28;20017;-72
2022/05/31 12:31:42;;;;;;;4.32;1.73;;;23.10;40.50;;;;;;5047368;28;20025;-73
2022/05/31 12:34:19;;;;;;;6.80;2.45;;;23.10;40.00;;;;;;5047966;28;20049;-71
2022/05/31 12:37:17;;;;;;;4.95;1.30;;;23.10;39.80;;;;;;5048907;28;20044;-72
2022/05/31 12:39:46;;;;;;;4.63;1.50;;;23.40;43.00;;;;;;5031525;28;20105;-72
2022/05/31 12:42:14;;;;;;;3.28;1.05;;;23.50;43.90;;;;;;5049049;28;20013;-72
2022/05/31 12:44:46;;;;;;;2.80;1.10;;;23.90;44.30;;;;;;5049237;28;20021;-73
2022/05/31 12:47:31;;;;;;;2.40;1.15;;;24.20;47.60;;;;;;5036023;28;20030;-73
2022/05/31 12:50:42;;;;;;;3.80;1.00;;;24.30;42.90;;;;;;5063781;28;20021;-70
2022/05/31 12:55:36;;;;;;;3.13;1.50;;;25.00;44.90;;;;;;5048321;28;20021;-72
2022/05/31 12:58:29;;;;;;;4.45;1.77;;;25.20;39.70;;;;;;5048459;28;20469;-72
2022/05/31 13:01:04;;;;;;;5.57;1.80;;;24.60;37.30;;;;;;5044462;28;20128;-72
2022/05/31 13:03:49;;;;;;;4.00;1.60;;;24.30;37.80;;;;;;5048688;28;20846;-71
2022/05/31 13:06:34;;;;;;;3.63;1.52;;;23.90;47.40;;;;;;5037513;28;20029;-72
2022/05/31 13:09:12;;;;;;;3.40;1.73;;;23.40;44.70;;;;;;5048171;28;20123;-72
2022/05/31 13:20:32;;;;;;;4.63;1.38;;;22.60;38.50;;;;;;5048255;28;20032;-72
2022/05/31 13:23:10;;;;;;;5.07;1.40;;;22.50;46.00;;;;;;5048040;28;20025;-73
2022/05/31 13:25:54;;;;;;;3.10;1.50;;;22.50;42.20;;;;;;5047650;28;20029;-72
2022/05/31 13:28:25;;;;;;;4.22;1.20;;;22.40;39.50;;;;;;5026650;28;20037;-73
2022/05/31 13:30:51;;;;;;;5.50;1.70;;;22.30;45.40;;;;;;5042076;28;20788;-72
2022/05/31 13:33:21;;;;;;;4.45;1.80;;;22.10;40.90;;;;;;5048059;28;20356;-72
2022/05/31 13:35:56;;;;;;;5.20;1.90;;;22.10;40.20;;;;;;5047532;28;20017;-73
2022/05/31 13:38:28;;;;;;;4.25;1.60;;;22.00;41.50;;;;;;5046565;28;20505;-72
2022/05/31 13:40:57;;;;;;;4.93;2.00;;;21.90;48.30;;;;;;5046422;28;20017;-72
2022/05/31 13:43:32;;;;;;;4.68;1.63;;;21.70;42.80;;;;;;5048174;28;20025;-72
2022/05/31 13:46:02;;;;;;;4.25;1.80;;;21.40;49.80;;;;;;5045487;28;20112;-72
2022/05/31 13:48:38;;;;;;;5.55;1.75;;;21.20;47.90;;;;;;5048332;28;20464;-73
2022/05/31 13:51:10;;;;;;;6.30;2.03;;;21.10;44.60;;;;;;5047697;28;20025;-73